Huber, Ohio
Current Conditions -  °F | °C
As of 4:58 PM on Tuesday 21 Oct 2014 (Local Time) from KFFO Reporting Station
Light Rain Light Rain  
Wind Chill: 50°   Ceiling: 3500
Heat Index: 50°   Visibility: 10mi
Dew Point: 46°   Wind: 10mph
Humidity: 87%   Direction: 330°NNW
Pressure: 30.08"   Gusts: NA
Location:  39.8476°N, 84.1086°W
Report Text: KFFO 212058Z 33009KT 10SM -RA SCT022 OVC035 10/08 A3008 RMK AO2A SLP191 P0001 60001 53015
Loading
Personal Weather Stations






























Interactive Weather Map
Tropical Storm Tracking
New forecast layout! Learn more

10-Day Weather Forecast

Advertisements
Track Severe Weather on mobile